Time;durP1;ratioP1;P1;durP2;ratioP2;P2;SDS_P1;SDS_P2;PMS_P1;PMS_P2;Temp;Humidity;BMP_temperature;BMP_pressure;BME280_temperature;BME280_humidity;BME280_pressure;Samples;Min_cycle;Max_cycle;Signal;HPM_P1;HPM_P2
2023/01/09 00:02:23;;;;;;;9.32;3.80;;;-10.50;99.90;;;;;;5065606;28;20599;-65
2023/01/09 00:04:51;;;;;;;6.68;3.13;;;-10.40;99.90;;;;;;5052825;28;20393;-65
2023/01/09 00:07:18;;;;;;;7.68;3.70;;;-10.40;99.90;;;;;;5051303;28;20498;-66
2023/01/09 00:09:45;;;;;;;6.63;3.88;;;-10.50;99.90;;;;;;5050017;28;20865;-65
2023/01/09 00:12:13;;;;;;;8.82;4.03;;;-10.50;99.90;;;;;;5050600;28;20421;-66
2023/01/09 00:14:40;;;;;;;8.15;3.55;;;-10.50;99.90;;;;;;5051703;28;20052;-65
2023/01/09 00:17:08;;;;;;;6.90;3.90;;;-10.50;99.90;;;;;;5052482;28;20053;-67
2023/01/09 00:19:36;;;;;;;6.40;3.53;;;-10.50;99.90;;;;;;5049943;28;20045;-65
2023/01/09 00:22:05;;;;;;;6.95;3.72;;;-10.50;99.90;;;;;;5051103;28;20579;-67
2023/01/09 00:24:32;;;;;;;6.43;4.03;;;-10.50;99.90;;;;;;5048773;28;20148;-67
2023/01/09 00:27:00;;;;;;;7.25;3.95;;;-10.50;99.90;;;;;;5052684;28;20063;-65
2023/01/09 00:29:27;;;;;;;7.90;3.25;;;-10.50;99.90;;;;;;5047863;28;20136;-65
2023/01/09 00:31:55;;;;;;;9.32;5.15;;;-10.50;99.90;;;;;;5050652;28;20068;-68
2023/01/09 00:34:22;;;;;;;5.60;2.97;;;-10.40;99.90;;;;;;5052663;28;20040;-66
2023/01/09 00:36:54;;;;;;;7.20;4.05;;;-10.40;99.90;;;;;;5052591;28;20504;-65
2023/01/09 00:39:21;;;;;;;6.72;4.15;;;-10.40;99.90;;;;;;5045485;28;20072;-66
2023/01/09 00:41:52;;;;;;;8.35;4.20;;;-10.50;99.90;;;;;;5049491;28;20500;-66
2023/01/09 00:44:35;;;;;;;8.63;3.47;;;-10.40;99.90;;;;;;5051926;28;20053;-67
2023/01/09 00:47:06;;;;;;;;;;;-10.40;99.90;;;;;;5047467;28;20084;-65
2023/01/09 00:49:37;;;;;;;7.20;3.47;;;-10.40;99.90;;;;;;5050478;28;20331;-65
2023/01/09 00:52:08;;;;;;;7.10;3.60;;;-10.50;99.90;;;;;;5051989;28;20048;-65
2023/01/09 00:54:35;;;;;;;6.15;3.67;;;-10.40;99.90;;;;;;5048586;28;20064;-65
2023/01/09 00:57:03;;;;;;;6.88;3.70;;;-10.40;99.90;;;;;;5050763;28;20076;-66
2023/01/09 00:59:30;;;;;;;9.35;5.00;;;-10.30;99.90;;;;;;5049694;28;20057;-65
2023/01/09 01:01:58;;;;;;;7.75;3.72;;;-10.40;99.90;;;;;;5050108;28;20068;-64
2023/01/09 01:09:57;;;;;;;10.88;4.10;;;-10.30;99.90;;;;;;5029310;28;20520;-66
2023/01/09 01:12:24;;;;;;;10.60;4.05;;;-10.30;99.90;;;;;;5045907;28;20045;-65
2023/01/09 01:14:52;;;;;;;9.95;4.07;;;-10.40;99.90;;;;;;5049082;28;20052;-65
2023/01/09 01:17:20;;;;;;;8.60;4.28;;;-10.30;99.90;;;;;;5050802;28;20472;-65
2023/01/09 01:19:47;;;;;;;11.10;4.65;;;-10.30;99.90;;;;;;5042231;28;20045;-65
2023/01/09 01:22:16;;;;;;;8.27;4.15;;;-10.30;99.90;;;;;;5037509;28;20087;-65
2023/01/09 01:24:44;;;;;;;7.88;3.63;;;-10.30;99.90;;;;;;5049256;28;20064;-66
2023/01/09 01:27:11;;;;;;;11.35;4.65;;;-10.30;99.90;;;;;;5048653;28;20076;-69
2023/01/09 01:29:38;;;;;;;8.18;3.75;;;-10.30;99.90;;;;;;5051004;28;20081;-65
2023/01/09 01:32:06;;;;;;;7.82;4.10;;;-10.30;99.90;;;;;;5038253;28;20060;-66
2023/01/09 01:34:34;;;;;;;8.50;4.47;;;-10.30;99.90;;;;;;5045125;28;20071;-65
2023/01/09 01:37:01;;;;;;;11.60;4.82;;;-10.30;99.90;;;;;;5048868;28;20131;-65
2023/01/09 01:39:30;;;;;;;14.02;4.65;;;-10.20;99.90;;;;;;5050155;28;20048;-64
2023/01/09 01:41:57;;;;;;;12.43;3.78;;;-10.20;99.90;;;;;;5051301;28;20489;-66
2023/01/09 01:45:06;;;;;;;9.93;4.00;;;-10.20;99.90;;;;;;5043135;28;21205;-65
2023/01/09 01:47:44;;;;;;;8.35;3.72;;;-10.20;99.90;;;;;;5040859;28;20073;-66
2023/01/09 01:50:21;;;;;;;8.40;3.90;;;-10.20;99.90;;;;;;5050426;28;20045;-65
2023/01/09 01:52:55;;;;;;;6.22;3.33;;;-10.30;99.90;;;;;;5048213;28;20045;-66
2023/01/09 01:55:24;;;;;;;9.18;4.00;;;-10.40;99.90;;;;;;5049422;28;20052;-66
2023/01/09 01:58:00;;;;;;;10.70;4.50;;;-10.40;99.90;;;;;;5048095;28;20491;-65
2023/01/09 02:00:38;;;;;;;7.75;3.90;;;-10.40;99.90;;;;;;5041660;28;20577;-65
2023/01/09 02:03:07;;;;;;;12.73;5.10;;;-10.40;99.90;;;;;;5044177;28;20049;-65
2023/01/09 02:05:36;;;;;;;9.07;4.50;;;-10.30;99.90;;;;;;5031335;28;20068;-66
2023/01/09 02:08:05;;;;;;;9.07;3.95;;;-10.30;99.90;;;;;;5031529;28;20060;-65
2023/01/09 02:10:34;;;;;;;9.40;4.90;;;-10.20;99.90;;;;;;5034929;28;20564;-66
2023/01/09 02:13:02;;;;;;;9.38;3.60;;;-10.20;99.90;;;;;;5027613;28;20048;-65
2023/01/09 02:15:48;;;;;;;10.13;3.17;;;-10.20;99.90;;;;;;5048719;28;20531;-66
2023/01/09 02:18:46;;;;;;;10.48;4.57;;;-10.10;99.90;;;;;;5051155;28;20045;-65
2023/01/09 02:21:22;;;;;;;10.10;4.20;;;-10.10;99.90;;;;;;5042264;28;20049;-65
2023/01/09 02:24:32;;;;;;;10.98;3.95;;;-10.10;99.90;;;;;;5048278;28;20049;-65
2023/01/09 02:27:46;;;;;;;9.40;3.85;;;-10.00;99.90;;;;;;5045794;28;20140;-66
2023/01/09 02:30:37;;;;;;;7.60;3.63;;;-10.00;99.90;;;;;;5028584;28;20053;-65
2023/01/09 02:33:42;;;;;;;12.30;4.78;;;-10.00;99.90;;;;;;5048435;28;20416;-65
2023/01/09 02:36:24;;;;;;;10.18;4.75;;;-9.90;99.90;;;;;;5014403;28;20147;-65
2023/01/09 02:39:10;;;;;;;11.32;5.32;;;-9.90;99.90;;;;;;5045704;28;20041;-65
2023/01/09 02:41:47;;;;;;;8.40;3.92;;;-9.90;99.90;;;;;;5048901;28;20063;-65
2023/01/09 02:44:26;;;;;;;7.95;3.53;;;-9.80;99.90;;;;;;5049171;28;20513;-65
2023/01/09 02:47:07;;;;;;;8.35;3.35;;;-9.80;99.90;;;;;;5046276;28;20053;-65
2023/01/09 02:49:38;;;;;;;9.35;3.55;;;-9.70;99.90;;;;;;5044346;28;20055;-65
2023/01/09 02:52:22;;;;;;;7.65;4.03;;;-9.70;99.90;;;;;;5032743;28;20049;-66
2023/01/09 02:55:00;;;;;;;10.68;4.00;;;-9.70;99.90;;;;;;5044855;28;20451;-66
2023/01/09 02:57:46;;;;;;;5.18;2.83;;;-9.80;99.90;;;;;;5047010;28;20076;-65
2023/01/09 03:00:31;;;;;;;6.72;3.08;;;-9.70;99.90;;;;;;5048062;28;20148;-67
2023/01/09 03:03:09;;;;;;;10.02;4.10;;;-9.70;99.90;;;;;;5041871;28;20076;-64
2023/01/09 03:05:42;;;;;;;9.68;3.72;;;-9.70;99.90;;;;;;5035269;28;20398;-66
2023/01/09 03:08:16;;;;;;;11.73;4.95;;;-9.70;99.90;;;;;;5049319;28;20057;-66
2023/01/09 03:10:51;;;;;;;8.75;3.70;;;-9.70;99.90;;;;;;5053238;28;20056;-66
2023/01/09 03:13:23;;;;;;;6.53;4.07;;;-9.60;99.90;;;;;;5053140;28;20049;-66
2023/01/09 03:15:54;;;;;;;7.95;3.63;;;-9.50;99.90;;;;;;5051318;28;20088;-66
2023/01/09 03:18:27;;;;;;;9.55;3.53;;;-9.50;99.90;;;;;;5051757;28;20394;-66
2023/01/09 03:20:55;;;;;;;6.70;3.20;;;-9.50;99.90;;;;;;5052834;28;20045;-65
2023/01/09 03:23:24;;;;;;;10.57;4.10;;;-9.50;99.90;;;;;;5035779;28;20551;-66
2023/01/09 03:25:51;;;;;;;5.22;3.47;;;-9.50;99.90;;;;;;5044970;28;20057;-65
2023/01/09 03:28:27;;;;;;;6.72;3.38;;;-9.50;99.90;;;;;;5035780;28;20080;-68
2023/01/09 03:30:55;;;;;;;5.68;3.05;;;-9.40;99.90;;;;;;5047285;28;20091;-66
2023/01/09 03:33:24;;;;;;;9.40;3.67;;;-9.40;99.90;;;;;;5052338;28;20045;-67
2023/01/09 03:35:51;;;;;;;6.47;3.28;;;-9.40;99.90;;;;;;5051632;28;20056;-66
2023/01/09 03:38:19;;;;;;;5.40;3.40;;;-9.30;99.90;;;;;;5053410;28;20064;-66
2023/01/09 03:40:46;;;;;;;8.02;3.65;;;-9.40;99.90;;;;;;5068103;28;20504;-68
2023/01/09 03:43:13;;;;;;;5.00;3.30;;;-9.40;99.90;;;;;;5050365;28;20601;-66
2023/01/09 03:45:42;;;;;;;7.05;4.70;;;-9.40;99.90;;;;;;5052292;28;20056;-65
2023/01/09 03:48:09;;;;;;;7.50;3.55;;;-9.30;99.90;;;;;;5050704;28;20067;-67
2023/01/09 03:50:41;;;;;;;7.07;3.53;;;-9.30;99.90;;;;;;5053490;28;20079;-66
2023/01/09 03:53:08;;;;;;;8.48;4.05;;;-9.30;99.90;;;;;;5046599;28;20051;-66
2023/01/09 03:55:36;;;;;;;4.72;2.60;;;-9.30;99.90;;;;;;5051799;28;20056;-65
2023/01/09 03:58:03;;;;;;;7.43;3.50;;;-9.40;99.90;;;;;;5049275;28;20416;-65
2023/01/09 04:00:31;;;;;;;7.65;3.60;;;-9.40;99.90;;;;;;5052141;28;20118;-67
2023/01/09 04:02:58;;;;;;;8.18;3.70;;;-9.40;99.90;;;;;;5049758;28;20049;-65
2023/01/09 04:05:26;;;;;;;5.35;3.42;;;-9.40;99.90;;;;;;5044212;28;20498;-68
2023/01/09 04:07:54;;;;;;;6.50;3.55;;;-9.30;99.90;;;;;;5047549;28;20591;-67
2023/01/09 04:10:22;;;;;;;6.63;3.65;;;-9.30;99.90;;;;;;5043555;28;20498;-65
2023/01/09 04:12:49;;;;;;;6.22;2.92;;;-9.20;99.90;;;;;;5042715;28;20050;-66
2023/01/09 04:15:17;;;;;;;5.25;3.05;;;-9.20;99.90;;;;;;5040938;28;20530;-64
2023/01/09 04:17:44;;;;;;;6.13;2.88;;;-9.20;99.90;;;;;;5031597;28;20126;-67
2023/01/09 04:20:12;;;;;;;5.72;3.20;;;-9.20;99.90;;;;;;5049198;28;20428;-69
2023/01/09 04:22:39;;;;;;;7.32;3.67;;;-9.20;99.90;;;;;;5043190;28;20045;-68
2023/01/09 04:25:09;;;;;;;9.05;3.55;;;-9.20;99.90;;;;;;5044601;28;20041;-72
2023/01/09 04:27:37;;;;;;;5.22;3.05;;;-9.10;99.90;;;;;;5040063;28;20119;-74
2023/01/09 04:30:05;;;;;;;8.90;3.70;;;-9.20;99.90;;;;;;5033098;28;20069;-68
2023/01/09 04:32:33;;;;;;;5.60;3.40;;;-9.20;99.90;;;;;;5044392;28;20152;-67
2023/01/09 04:35:00;;;;;;;4.88;3.10;;;-9.20;99.90;;;;;;5050279;28;20048;-68
2023/01/09 04:37:28;;;;;;;7.32;3.28;;;-9.20;99.90;;;;;;5045183;28;20103;-73
2023/01/09 04:39:56;;;;;;;7.35;3.15;;;-9.30;99.90;;;;;;5046440;28;20053;-72
2023/01/09 04:42:25;;;;;;;3.67;2.08;;;-9.30;99.90;;;;;;5049332;28;20134;-71
2023/01/09 04:44:53;;;;;;;7.10;3.00;;;-9.30;99.90;;;;;;4994733;23;20074;-67
2023/01/09 04:47:22;;;;;;;8.90;4.30;;;-9.30;99.90;;;;;;4961764;28;20064;-70
2023/01/09 04:49:49;;;;;;;5.50;3.25;;;-9.30;99.90;;;;;;4953280;29;20134;-68
2023/01/09 04:52:17;;;;;;;9.23;4.03;;;-9.30;99.90;;;;;;4952640;28;20484;-68
2023/01/09 04:54:44;;;;;;;8.10;3.13;;;-9.30;99.90;;;;;;4953547;28;20050;-66
2023/01/09 04:57:12;;;;;;;7.80;2.90;;;-9.20;99.90;;;;;;4941651;28;20051;-67
2023/01/09 04:59:40;;;;;;;6.35;3.38;;;-9.20;99.90;;;;;;4955861;28;20059;-67
2023/01/09 05:02:08;;;;;;;7.45;3.38;;;-9.30;99.90;;;;;;4953231;29;20122;-69
2023/01/09 05:04:36;;;;;;;6.65;3.75;;;-9.20;99.90;;;;;;4952505;29;20106;-68
2023/01/09 05:07:03;;;;;;;7.32;3.60;;;-9.30;99.90;;;;;;4947676;28;20059;-68
2023/01/09 05:09:31;;;;;;;6.90;2.75;;;-9.30;99.90;;;;;;4957403;28;20551;-67
2023/01/09 05:11:58;;;;;;;7.57;4.47;;;-9.20;99.90;;;;;;4964885;28;20100;-68
2023/01/09 05:14:25;;;;;;;9.48;3.13;;;-9.20;99.90;;;;;;4953596;28;20058;-66
2023/01/09 05:16:54;;;;;;;8.77;3.17;;;-9.20;99.90;;;;;;4950933;29;20051;-66
2023/01/09 05:19:22;;;;;;;2.90;1.70;;;-9.20;99.90;;;;;;4952940;28;20405;-66
2023/01/09 05:21:49;;;;;;;7.07;3.22;;;-9.20;99.90;;;;;;4958959;28;20398;-67
2023/01/09 05:24:17;;;;;;;7.10;4.03;;;-9.20;99.90;;;;;;4952776;29;20047;-66
2023/01/09 05:26:45;;;;;;;8.30;3.45;;;-9.20;99.90;;;;;;4945395;28;20047;-65
2023/01/09 05:29:12;;;;;;;7.88;4.50;;;-9.30;99.90;;;;;;4951961;29;20091;-67
2023/01/09 05:31:39;;;;;;;6.07;3.10;;;-9.30;99.90;;;;;;4954490;28;20051;-68
2023/01/09 05:34:08;;;;;;;8.25;4.00;;;-9.20;99.90;;;;;;4937714;28;20047;-68
2023/01/09 05:36:36;;;;;;;6.55;3.80;;;-9.30;99.90;;;;;;4971467;28;20139;-73
2023/01/09 05:39:04;;;;;;;6.10;2.58;;;-9.30;99.90;;;;;;4952373;28;20119;-72
2023/01/09 05:41:31;;;;;;;6.97;3.92;;;-9.30;99.90;;;;;;4949423;28;20051;-72
2023/01/09 05:43:59;;;;;;;9.32;4.07;;;-9.30;99.90;;;;;;4947878;28;20043;-72
2023/01/09 05:46:27;;;;;;;5.45;3.47;;;-9.30;99.90;;;;;;4942465;28;20051;-72
2023/01/09 05:48:54;;;;;;;7.82;3.03;;;-9.30;99.90;;;;;;4948761;28;20055;-67
2023/01/09 05:51:23;;;;;;;7.32;2.90;;;-9.30;99.90;;;;;;4960773;28;20145;-66
2023/01/09 05:53:51;;;;;;;8.73;3.58;;;-9.30;99.90;;;;;;4956450;28;20039;-68
2023/01/09 05:56:18;;;;;;;5.63;3.65;;;-9.30;99.90;;;;;;4947472;29;20047;-68
2023/01/09 05:58:46;;;;;;;6.63;3.42;;;-9.30;99.90;;;;;;4943542;29;20056;-67
2023/01/09 06:01:13;;;;;;;8.10;3.22;;;-9.20;99.90;;;;;;4958737;28;20044;-69
2023/01/09 06:03:41;;;;;;;8.93;3.83;;;-9.20;99.90;;;;;;4945779;29;20130;-69
2023/01/09 06:06:08;;;;;;;7.60;3.20;;;-9.20;99.90;;;;;;4942361;28;20118;-69
2023/01/09 06:08:37;;;;;;;5.68;3.13;;;-9.20;99.90;;;;;;4943433;29;20134;-68
2023/01/09 06:11:05;;;;;;;5.97;3.33;;;-9.20;99.90;;;;;;4957423;28;20133;-67
2023/01/09 06:13:33;;;;;;;6.32;3.20;;;-9.10;99.90;;;;;;4945774;28;20066;-66
2023/01/09 06:16:00;;;;;;;7.38;3.20;;;-9.10;99.90;;;;;;4941272;29;20043;-67
2023/01/09 06:18:28;;;;;;;6.45;3.38;;;-9.10;99.90;;;;;;4949309;29;20043;-70
2023/01/09 06:20:55;;;;;;;8.57;2.72;;;-9.10;99.90;;;;;;4951375;28;20150;-66
2023/01/09 06:23:23;;;;;;;3.47;2.92;;;-9.00;99.90;;;;;;4953000;28;20050;-69
2023/01/09 06:25:52;;;;;;;9.10;4.40;;;-9.00;99.90;;;;;;4962643;28;20105;-67
2023/01/09 06:28:19;;;;;;;5.03;2.65;;;-9.00;99.90;;;;;;4965631;28;20388;-65
2023/01/09 06:30:51;;;;;;;5.93;2.95;;;-9.00;99.90;;;;;;4944416;28;20058;-67
2023/01/09 06:33:19;;;;;;;8.15;3.40;;;-9.00;99.90;;;;;;4953824;28;20145;-67
2023/01/09 06:35:47;;;;;;;7.70;3.58;;;-9.00;99.90;;;;;;4973378;28;20434;-67
2023/01/09 06:38:14;;;;;;;7.28;3.08;;;-9.00;99.90;;;;;;4957105;28;20133;-67
2023/01/09 06:40:41;;;;;;;7.28;3.35;;;-8.90;99.90;;;;;;4952974;28;20051;-66
2023/01/09 06:43:10;;;;;;;10.75;3.78;;;-8.90;99.90;;;;;;4952025;28;20066;-67
2023/01/09 06:45:38;;;;;;;6.95;2.83;;;-8.90;99.90;;;;;;4944640;28;20552;-67
2023/01/09 06:48:06;;;;;;;3.53;2.42;;;-8.90;99.90;;;;;;4941214;29;20086;-68
2023/01/09 06:50:34;;;;;;;5.95;3.20;;;-8.90;99.90;;;;;;4941731;29;20047;-68
2023/01/09 06:53:01;;;;;;;7.25;3.13;;;-8.90;99.90;;;;;;4953452;28;20061;-68
2023/01/09 06:55:29;;;;;;;10.85;3.50;;;-8.90;99.90;;;;;;4960108;28;20401;-66
2023/01/09 06:57:56;;;;;;;6.80;3.63;;;-8.90;99.90;;;;;;4948343;28;20483;-67
2023/01/09 07:00:26;;;;;;;4.57;2.55;;;-8.90;99.90;;;;;;4940039;28;20043;-66
2023/01/09 07:02:53;;;;;;;7.85;4.00;;;-8.90;99.90;;;;;;4941852;28;20051;-68
2023/01/09 07:05:20;;;;;;;8.27;2.90;;;-8.90;99.90;;;;;;4943792;28;20424;-66
2023/01/09 07:07:48;;;;;;;5.72;2.92;;;-8.90;99.90;;;;;;4938446;29;20062;-67
2023/01/09 07:10:15;;;;;;;8.07;4.10;;;-8.90;99.90;;;;;;4948774;28;20054;-67
2023/01/09 07:12:43;;;;;;;6.68;3.75;;;-8.90;99.90;;;;;;4944266;28;20051;-67
2023/01/09 07:15:11;;;;;;;8.43;2.97;;;-8.90;99.90;;;;;;4948642;28;20051;-68
2023/01/09 07:17:40;;;;;;;7.15;3.05;;;-8.90;99.90;;;;;;4943063;28;20055;-67
2023/01/09 07:20:09;;;;;;;10.05;3.20;;;-8.90;99.90;;;;;;4944340;28;20061;-66
2023/01/09 07:22:37;;;;;;;7.28;3.20;;;-8.90;99.90;;;;;;4945311;28;20081;-72
2023/01/09 07:25:05;;;;;;;5.57;3.03;;;-8.80;99.90;;;;;;4957171;28;20043;-73
2023/01/09 07:27:33;;;;;;;4.53;3.08;;;-8.80;99.90;;;;;;4952691;28;20081;-73
2023/01/09 07:30:00;;;;;;;3.50;2.17;;;-8.80;99.90;;;;;;4946018;28;20050;-73
2023/01/09 07:32:27;;;;;;;6.07;3.53;;;-8.70;99.90;;;;;;4949619;28;20504;-74
2023/01/09 07:34:56;;;;;;;5.53;3.15;;;-8.80;99.90;;;;;;4944143;28;20047;-72
2023/01/09 07:37:23;;;;;;;6.35;3.45;;;-8.80;99.90;;;;;;4965907;28;20137;-71
2023/01/09 07:39:51;;;;;;;6.07;2.97;;;-8.80;99.90;;;;;;4945982;28;20039;-72
2023/01/09 07:42:18;;;;;;;5.70;2.70;;;-8.80;99.90;;;;;;4946982;28;20069;-75
2023/01/09 07:44:46;;;;;;;7.53;3.97;;;-8.80;99.90;;;;;;4953415;28;20435;-73
2023/01/09 07:47:13;;;;;;;5.32;3.08;;;-8.70;99.90;;;;;;4953631;28;20055;-75
2023/01/09 07:49:40;;;;;;;8.27;3.45;;;-8.70;99.90;;;;;;4946638;28;20047;-73
2023/01/09 07:52:09;;;;;;;4.80;3.08;;;-8.70;99.90;;;;;;4949324;28;20047;-73
2023/01/09 07:54:36;;;;;;;7.03;3.45;;;-8.70;99.90;;;;;;4957498;28;20054;-74
2023/01/09 07:57:05;;;;;;;6.70;4.07;;;-8.70;99.90;;;;;;4938966;28;20071;-73
2023/01/09 07:59:32;;;;;;;7.13;3.65;;;-8.70;99.90;;;;;;4947465;28;20043;-73
2023/01/09 08:02:01;;;;;;;7.90;3.72;;;-8.60;99.90;;;;;;4945519;28;20058;-73
2023/01/09 08:04:28;;;;;;;5.32;3.13;;;-8.60;99.90;;;;;;4945291;28;20427;-72
2023/01/09 08:06:55;;;;;;;6.10;3.88;;;-8.60;99.90;;;;;;4950115;28;20055;-74
2023/01/09 08:09:24;;;;;;;11.77;3.15;;;-8.60;99.90;;;;;;4942580;28;20055;-74
2023/01/09 08:11:51;;;;;;;7.03;2.95;;;-8.60;99.90;;;;;;4948824;28;20050;-74
2023/01/09 08:14:19;;;;;;;8.23;3.20;;;-8.60;99.90;;;;;;4948071;28;20460;-74
2023/01/09 08:16:46;;;;;;;5.70;3.20;;;-8.60;99.90;;;;;;4947398;28;20043;-73
2023/01/09 08:19:13;;;;;;;3.58;1.88;;;-8.50;99.90;;;;;;4950105;28;20365;-72
2023/01/09 08:21:41;;;;;;;4.85;3.20;;;-8.50;99.90;;;;;;4948846;28;20047;-72
2023/01/09 08:24:10;;;;;;;4.07;3.28;;;-8.50;99.90;;;;;;4945769;28;20044;-75
2023/01/09 08:26:39;;;;;;;5.32;2.75;;;-8.50;99.90;;;;;;4944991;28;20051;-70
2023/01/09 08:29:06;;;;;;;5.97;3.58;;;-8.50;99.90;;;;;;4944672;28;20503;-73
2023/01/09 08:31:34;;;;;;;7.97;2.90;;;-8.50;99.90;;;;;;4946711;28;20046;-73
2023/01/09 08:34:01;;;;;;;6.95;3.17;;;-8.50;99.90;;;;;;4964231;28;20044;-75
2023/01/09 08:36:28;;;;;;;6.68;2.47;;;-8.50;99.90;;;;;;4946730;28;20043;-73
2023/01/09 08:38:56;;;;;;;5.57;3.25;;;-8.40;99.90;;;;;;4948981;28;20071;-74
2023/01/09 08:47:06;;;;;;;7.80;2.47;;;-8.40;99.90;;;;;;4948526;28;20054;-73
2023/01/09 08:49:38;;;;;;;7.05;3.28;;;-8.40;99.90;;;;;;4949302;28;20456;-73
2023/01/09 08:52:07;;;;;;;6.20;3.38;;;-8.50;99.90;;;;;;4953800;28;20101;-74
2023/01/09 08:54:37;;;;;;;5.25;2.90;;;-8.40;99.90;;;;;;4947610;28;20047;-74
2023/01/09 08:57:05;;;;;;;6.85;2.88;;;-8.40;99.90;;;;;;4948135;28;20146;-69
2023/01/09 08:59:35;;;;;;;3.75;2.50;;;-8.40;99.90;;;;;;4949228;28;20055;-67
2023/01/09 09:02:03;;;;;;;6.13;3.08;;;-8.40;99.90;;;;;;4943193;28;20055;-69
2023/01/09 09:04:30;;;;;;;5.30;2.88;;;-8.40;99.90;;;;;;4948970;28;20096;-67
2023/01/09 09:06:58;;;;;;;6.30;3.08;;;-8.30;99.90;;;;;;4949776;28;20452;-68
2023/01/09 09:09:25;;;;;;;6.13;2.60;;;-8.30;99.90;;;;;;4946046;28;20055;-67
2023/01/09 09:11:53;;;;;;;5.72;3.00;;;-8.30;99.90;;;;;;4949852;28;20090;-69
2023/01/09 09:17:07;;;;;;;7.05;4.30;;;-8.20;99.90;;;;;;4958956;28;20068;-70
2023/01/09 09:19:34;;;;;;;4.53;2.85;;;-8.20;99.90;;;;;;4957098;28;20090;-69
2023/01/09 09:22:02;;;;;;;6.43;3.10;;;-8.30;99.90;;;;;;4948411;28;20051;-68
2023/01/09 09:24:29;;;;;;;9.73;4.63;;;-8.30;99.90;;;;;;4947147;28;20043;-68
2023/01/09 09:26:57;;;;;;;5.60;3.47;;;-8.30;99.90;;;;;;4947074;28;20051;-69
2023/01/09 09:29:24;;;;;;;6.65;2.97;;;-8.20;99.90;;;;;;4945007;28;20051;-67
2023/01/09 09:31:51;;;;;;;6.68;3.53;;;-8.20;99.90;;;;;;4948289;28;20105;-69
2023/01/09 09:34:20;;;;;;;5.82;4.00;;;-8.10;99.90;;;;;;4948743;28;20133;-67
2023/01/09 09:36:47;;;;;;;7.03;3.83;;;-8.20;99.90;;;;;;4948633;28;20047;-66
2023/01/09 09:39:15;;;;;;;5.00;3.17;;;-8.20;99.90;;;;;;4944682;28;20047;-71
2023/01/09 09:45:22;;;;;;;7.22;3.80;;;-8.30;99.90;;;;;;4951235;28;20122;-73
2023/01/09 09:48:02;;;;;;;5.43;3.22;;;-8.30;99.90;;;;;;4948650;28;20042;-74
2023/01/09 09:51:02;;;;;;;7.53;3.90;;;-8.20;99.90;;;;;;4949211;28;20055;-77
2023/01/09 09:53:39;;;;;;;7.40;2.95;;;-8.20;99.90;;;;;;4944423;28;20055;-75
2023/01/09 09:56:10;;;;;;;6.53;3.65;;;-8.10;99.90;;;;;;4947386;28;20071;-71
2023/01/09 09:58:40;;;;;;;4.80;2.97;;;-8.00;99.90;;;;;;4945278;28;20514;-71
2023/01/09 10:01:13;;;;;;;10.18;3.55;;;-8.10;99.90;;;;;;4944835;28;20557;-74
2023/01/09 10:03:46;;;;;;;11.52;3.97;;;-8.10;99.90;;;;;;4949008;28;20051;-73
2023/01/09 10:06:23;;;;;;;6.22;4.13;;;-8.10;99.90;;;;;;4946560;28;20061;-73
2023/01/09 10:09:00;;;;;;;8.50;3.50;;;-8.10;99.90;;;;;;4945324;28;20569;-74
2023/01/09 10:11:35;;;;;;;8.20;4.00;;;-8.00;99.90;;;;;;4944107;28;20102;-75
2023/01/09 10:14:05;;;;;;;10.20;4.30;;;-8.10;99.90;;;;;;4952038;28;20558;-73
2023/01/09 10:16:51;;;;;;;6.55;3.50;;;-8.00;99.90;;;;;;4943795;28;20579;-68
2023/01/09 10:19:37;;;;;;;8.60;3.78;;;-7.90;99.90;;;;;;4944637;28;20146;-70
2023/01/09 10:22:20;;;;;;;5.55;3.33;;;-7.90;99.90;;;;;;4947295;28;20505;-67
2023/01/09 10:25:05;;;;;;;9.75;4.55;;;-7.90;99.90;;;;;;4948469;28;20082;-67
2023/01/09 10:27:53;;;;;;;9.98;3.80;;;-8.00;99.90;;;;;;4947742;28;20055;-68
2023/01/09 10:30:32;;;;;;;9.20;4.00;;;-7.90;99.90;;;;;;4927611;28;20051;-69
2023/01/09 10:33:17;;;;;;;8.68;4.18;;;-7.80;99.90;;;;;;4946100;28;20103;-66
2023/01/09 10:36:28;;;;;;;8.13;3.03;;;-7.90;99.90;;;;;;4945474;28;20059;-66
2023/01/09 10:39:07;;;;;;;8.55;4.35;;;-7.90;99.90;;;;;;4945944;28;20631;-72
2023/01/09 10:41:40;;;;;;;6.90;4.03;;;-7.80;99.90;;;;;;4947297;28;20137;-68
2023/01/09 10:44:17;;;;;;;9.00;3.88;;;-7.80;99.90;;;;;;4943182;28;20051;-68
2023/01/09 10:46:53;;;;;;;11.57;4.07;;;-7.80;99.90;;;;;;4965772;28;20146;-68
2023/01/09 10:49:22;;;;;;;8.07;3.65;;;-7.80;99.90;;;;;;4959902;28;20109;-68
2023/01/09 10:52:05;;;;;;;10.90;4.43;;;-7.80;99.90;;;;;;4959649;28;20102;-69
2023/01/09 10:54:58;;;;;;;9.23;4.00;;;-7.90;99.90;;;;;;4960159;28;20051;-70
2023/01/09 10:57:48;;;;;;;7.40;4.55;;;-7.90;99.90;;;;;;4944651;28;20087;-70
2023/01/09 11:00:27;;;;;;;7.18;4.45;;;-7.70;99.90;;;;;;4947294;28;20143;-68
2023/01/09 11:02:55;;;;;;;8.82;4.53;;;-7.70;99.90;;;;;;4942774;28;20465;-68
2023/01/09 11:05:26;;;;;;;9.75;3.85;;;-7.70;99.90;;;;;;4946104;28;20051;-69
2023/01/09 11:07:59;;;;;;;8.40;3.72;;;-7.70;99.90;;;;;;4946376;28;20061;-68
2023/01/09 11:10:47;;;;;;;6.22;3.55;;;-7.70;99.90;;;;;;4945655;28;20039;-68
2023/01/09 11:13:20;;;;;;;5.57;3.20;;;-7.70;99.90;;;;;;4946028;28;20079;-68
2023/01/09 11:16:04;;;;;;;;;;;-7.80;99.90;;;;;;4946480;28;20527;-69
2023/01/09 11:18:33;;;;;;;7.82;2.97;;;-7.80;99.90;;;;;;4948189;28;19933;-68
2023/01/09 11:21:18;;;;;;;7.00;4.05;;;-7.80;99.90;;;;;;4948181;28;20050;-69
2023/01/09 11:23:46;;;;;;;11.10;4.93;;;-7.70;99.90;;;;;;4944801;28;20567;-66
2023/01/09 11:26:25;;;;;;;9.07;3.92;;;-7.80;99.90;;;;;;4955127;28;20043;-68
2023/01/09 11:29:07;;;;;;;5.07;3.70;;;-7.80;99.90;;;;;;4948755;28;20055;-69
2023/01/09 11:31:35;;;;;;;10.88;4.40;;;-7.70;99.90;;;;;;4967487;28;20133;-69
2023/01/09 11:34:02;;;;;;;7.70;3.78;;;-7.60;99.90;;;;;;4968425;28;20089;-66
2023/01/09 11:36:30;;;;;;;8.95;4.15;;;-7.60;99.90;;;;;;4969663;28;20059;-68
2023/01/09 11:39:01;;;;;;;6.75;3.55;;;-7.60;99.90;;;;;;4971422;28;20059;-68
2023/01/09 11:41:33;;;;;;;6.20;3.88;;;-7.60;99.90;;;;;;4966055;28;20047;-69
2023/01/09 11:44:03;;;;;;;6.60;3.83;;;-7.60;99.90;;;;;;4950640;28;20059;-66
2023/01/09 11:46:37;;;;;;;9.32;3.75;;;-7.60;99.90;;;;;;4957509;28;20039;-68
2023/01/09 11:49:19;;;;;;;8.20;3.85;;;-7.70;99.90;;;;;;4948489;28;20094;-67
2023/01/09 11:52:04;;;;;;;13.68;4.65;;;-7.60;99.90;;;;;;4949888;28;20078;-73
2023/01/09 11:54:34;;;;;;;9.73;3.42;;;-7.70;99.90;;;;;;4950606;28;20146;-72
2023/01/09 11:57:03;;;;;;;8.02;4.15;;;-7.70;99.90;;;;;;4946993;28;20131;-75
2023/01/09 11:59:31;;;;;;;7.85;3.88;;;-7.70;99.90;;;;;;4951077;28;20570;-74
2023/01/09 12:02:44;;;;;;;8.35;4.40;;;-7.70;99.90;;;;;;4950088;28;20059;-73
2023/01/09 12:05:26;;;;;;;9.23;4.55;;;-7.70;99.90;;;;;;4952184;28;20063;-74
2023/01/09 12:08:33;;;;;;;8.80;4.15;;;-7.60;99.90;;;;;;4951485;28;20083;-72
2023/01/09 12:11:25;;;;;;;7.18;3.25;;;-7.70;99.90;;;;;;4888688;29;20056;-74
2023/01/09 12:14:16;;;;;;;8.83;4.30;;;-7.80;99.90;;;;;;4890526;29;20139;-73
2023/01/09 12:17:00;;;;;;;9.82;4.55;;;-7.80;99.90;;;;;;4944231;28;20062;-71
2023/01/09 12:19:54;;;;;;;8.65;4.35;;;-7.80;99.90;;;;;;4948576;28;20055;-74
2023/01/09 12:22:35;;;;;;;6.65;4.05;;;-7.80;99.90;;;;;;4922464;28;20055;-70
2023/01/09 12:25:24;;;;;;;11.57;5.43;;;-7.90;99.90;;;;;;4946491;28;20135;-73
2023/01/09 12:28:15;;;;;;;7.15;4.15;;;-7.90;99.90;;;;;;4947422;28;20516;-70
2023/01/09 12:31:01;;;;;;;11.60;4.15;;;-7.90;99.90;;;;;;4948242;28;20369;-72
2023/01/09 12:33:41;;;;;;;15.38;4.47;;;-7.90;99.90;;;;;;4955768;28;20066;-73
2023/01/09 12:36:21;;;;;;;7.90;3.58;;;-7.90;99.90;;;;;;4948749;28;20200;-74
2023/01/09 12:38:56;;;;;;;13.50;4.00;;;-7.90;99.90;;;;;;4948989;28;20464;-73
2023/01/09 12:42:01;;;;;;;8.10;4.30;;;-7.90;99.90;;;;;;4948707;28;20206;-74
2023/01/09 12:44:57;;;;;;;6.15;3.85;;;-7.90;99.90;;;;;;4943032;28;20070;-73
2023/01/09 12:47:47;;;;;;;8.98;4.55;;;-8.00;99.90;;;;;;4950644;28;20427;-75
2023/01/09 12:50:51;;;;;;;13.82;5.03;;;-7.90;99.90;;;;;;4938689;28;20552;-75
2023/01/09 12:53:24;;;;;;;7.80;4.53;;;-8.00;99.90;;;;;;4944567;28;20102;-77
2023/01/09 12:55:58;;;;;;;8.68;4.63;;;-7.90;99.90;;;;;;4949600;28;20107;-75
2023/01/09 12:58:38;;;;;;;8.82;4.53;;;-7.90;99.90;;;;;;4948003;28;20054;-73
2023/01/09 13:01:13;;;;;;;10.43;5.30;;;-8.00;99.90;;;;;;4951859;28;20110;-72
2023/01/09 13:03:49;;;;;;;13.13;4.63;;;-8.00;99.90;;;;;;4948365;28;20059;-72
2023/01/09 13:06:19;;;;;;;9.27;4.43;;;-8.00;99.90;;;;;;4966579;28;20055;-72
2023/01/09 13:08:52;;;;;;;8.82;3.63;;;-8.00;99.90;;;;;;4952663;28;20555;-75
2023/01/09 13:11:24;;;;;;;10.40;5.10;;;-8.00;99.90;;;;;;4944286;28;20059;-74
2023/01/09 13:13:58;;;;;;;9.00;4.55;;;-8.10;99.90;;;;;;4951519;28;20051;-75
2023/01/09 13:16:31;;;;;;;12.77;4.07;;;-8.10;99.90;;;;;;4962029;28;20059;-72
2023/01/09 13:19:07;;;;;;;12.05;4.97;;;-8.10;99.90;;;;;;4947163;28;20047;-72
2023/01/09 13:21:35;;;;;;;8.75;4.13;;;-8.00;99.90;;;;;;4957475;28;20046;-70
2023/01/09 13:24:14;;;;;;;11.50;5.38;;;-8.00;99.90;;;;;;4942440;28;20051;-69
2023/01/09 13:26:46;;;;;;;7.50;4.13;;;-8.10;99.90;;;;;;4943130;28;20583;-68
2023/01/09 13:29:19;;;;;;;9.30;5.03;;;-8.10;99.90;;;;;;4947768;28;20055;-68